sensor_id;sensor_type;location;lat;lon;timestamp;P1;durP1;ratioP1;P2;durP2;ratioP2
22103;SDS011;11218;48.886;9.426;2023-02-22T00:00:44;28.13;;;7.47;;
22103;SDS011;11218;48.886;9.426;2023-02-22T00:03:16;30.05;;;8.55;;
22103;SDS011;11218;48.886;9.426;2023-02-22T00:05:51;34.72;;;9.00;;
22103;SDS011;11218;48.886;9.426;2023-02-22T00:08:21;23.92;;;7.75;;
22103;SDS011;11218;48.886;9.426;2023-02-22T00:10:51;26.52;;;7.63;;
22103;SDS011;11218;48.886;9.426;2023-02-22T00:13:19;29.05;;;8.50;;
22103;SDS011;11218;48.886;9.426;2023-02-22T00:15:49;27.88;;;8.02;;
22103;SDS011;11218;48.886;9.426;2023-02-22T00:18:17;27.35;;;8.60;;
22103;SDS011;11218;48.886;9.426;2023-02-22T00:20:46;29.70;;;9.88;;
22103;SDS011;11218;48.886;9.426;2023-02-22T00:23:15;37.17;;;11.10;;
22103;SDS011;11218;48.886;9.426;2023-02-22T00:25:45;37.67;;;12.27;;
22103;SDS011;11218;48.886;9.426;2023-02-22T00:28:14;32.85;;;10.65;;
22103;SDS011;11218;48.886;9.426;2023-02-22T00:30:44;28.30;;;9.80;;
22103;SDS011;11218;48.886;9.426;2023-02-22T00:33:15;33.55;;;10.13;;
22103;SDS011;11218;48.886;9.426;2023-02-22T00:35:43;32.38;;;10.18;;
22103;SDS011;11218;48.886;9.426;2023-02-22T00:38:13;32.70;;;10.13;;
22103;SDS011;11218;48.886;9.426;2023-02-22T00:40:43;29.73;;;9.65;;
22103;SDS011;11218;48.886;9.426;2023-02-22T00:43:12;30.38;;;9.60;;
22103;SDS011;11218;48.886;9.426;2023-02-22T00:45:40;28.23;;;9.30;;
22103;SDS011;11218;48.886;9.426;2023-02-22T00:48:09;26.73;;;8.57;;
22103;SDS011;11218;48.886;9.426;2023-02-22T00:50:39;25.27;;;8.75;;
22103;SDS011;11218;48.886;9.426;2023-02-22T00:53:07;28.70;;;8.70;;
22103;SDS011;11218;48.886;9.426;2023-02-22T00:55:36;27.45;;;8.90;;
22103;SDS011;11218;48.886;9.426;2023-02-22T00:58:04;25.67;;;9.10;;
22103;SDS011;11218;48.886;9.426;2023-02-22T01:00:35;25.92;;;8.15;;
22103;SDS011;11218;48.886;9.426;2023-02-22T01:03:04;29.75;;;8.00;;
22103;SDS011;11218;48.886;9.426;2023-02-22T01:05:33;27.23;;;7.80;;
22103;SDS011;11218;48.886;9.426;2023-02-22T01:08:05;35.00;;;9.13;;
22103;SDS011;11218;48.886;9.426;2023-02-22T01:10:34;22.17;;;7.45;;
22103;SDS011;11218;48.886;9.426;2023-02-22T01:13:03;37.92;;;9.20;;
22103;SDS011;11218;48.886;9.426;2023-02-22T01:15:35;42.40;;;10.00;;
22103;SDS011;11218;48.886;9.426;2023-02-22T01:18:04;34.40;;;9.32;;
22103;SDS011;11218;48.886;9.426;2023-02-22T01:20:33;26.75;;;9.25;;
22103;SDS011;11218;48.886;9.426;2023-02-22T01:23:02;43.42;;;11.40;;
22103;SDS011;11218;48.886;9.426;2023-02-22T01:25:33;36.95;;;10.13;;
22103;SDS011;11218;48.886;9.426;2023-02-22T01:28:03;27.65;;;8.05;;
22103;SDS011;11218;48.886;9.426;2023-02-22T01:30:33;30.67;;;8.30;;
22103;SDS011;11218;48.886;9.426;2023-02-22T01:33:03;30.08;;;8.60;;
22103;SDS011;11218;48.886;9.426;2023-02-22T01:35:34;26.08;;;8.40;;
22103;SDS011;11218;48.886;9.426;2023-02-22T01:38:05;25.70;;;8.10;;
22103;SDS011;11218;48.886;9.426;2023-02-22T01:40:34;26.13;;;7.28;;
22103;SDS011;11218;48.886;9.426;2023-02-22T01:43:05;30.48;;;8.35;;
22103;SDS011;11218;48.886;9.426;2023-02-22T01:45:48;24.90;;;7.90;;
22103;SDS011;11218;48.886;9.426;2023-02-22T01:48:21;23.85;;;8.07;;
22103;SDS011;11218;48.886;9.426;2023-02-22T01:50:55;27.98;;;9.02;;
22103;SDS011;11218;48.886;9.426;2023-02-22T01:53:27;32.30;;;8.98;;
22103;SDS011;11218;48.886;9.426;2023-02-22T01:55:59;31.48;;;9.15;;
22103;SDS011;11218;48.886;9.426;2023-02-22T01:58:29;31.15;;;9.13;;
22103;SDS011;11218;48.886;9.426;2023-02-22T02:01:00;30.80;;;9.00;;
22103;SDS011;11218;48.886;9.426;2023-02-22T02:03:29;32.45;;;8.88;;
22103;SDS011;11218;48.886;9.426;2023-02-22T02:06:00;35.13;;;9.57;;
22103;SDS011;11218;48.886;9.426;2023-02-22T02:08:34;33.30;;;9.75;;
22103;SDS011;11218;48.886;9.426;2023-02-22T02:11:07;31.35;;;9.45;;
22103;SDS011;11218;48.886;9.426;2023-02-22T02:13:36;27.75;;;9.05;;
22103;SDS011;11218;48.886;9.426;2023-02-22T02:16:05;27.85;;;9.00;;
22103;SDS011;11218;48.886;9.426;2023-02-22T02:18:33;32.17;;;9.77;;
22103;SDS011;11218;48.886;9.426;2023-02-22T02:21:12;34.30;;;10.55;;
22103;SDS011;11218;48.886;9.426;2023-02-22T02:24:31;38.53;;;10.77;;
22103;SDS011;11218;48.886;9.426;2023-02-22T02:27:18;34.17;;;10.30;;
22103;SDS011;11218;48.886;9.426;2023-02-22T02:30:07;44.50;;;11.52;;
22103;SDS011;11218;48.886;9.426;2023-02-22T02:32:56;33.88;;;9.70;;
22103;SDS011;11218;48.886;9.426;2023-02-22T02:35:28;31.95;;;9.23;;
22103;SDS011;11218;48.886;9.426;2023-02-22T02:38:06;23.95;;;9.05;;
22103;SDS011;11218;48.886;9.426;2023-02-22T02:40:44;22.83;;;9.23;;
22103;SDS011;11218;48.886;9.426;2023-02-22T02:43:16;38.60;;;10.82;;
22103;SDS011;11218;48.886;9.426;2023-02-22T02:45:53;31.25;;;9.63;;
22103;SDS011;11218;48.886;9.426;2023-02-22T02:48:27;30.52;;;9.50;;
22103;SDS011;11218;48.886;9.426;2023-02-22T02:51:00;34.78;;;10.43;;
22103;SDS011;11218;48.886;9.426;2023-02-22T02:53:33;33.88;;;9.63;;
22103;SDS011;11218;48.886;9.426;2023-02-22T02:56:03;28.90;;;9.38;;
22103;SDS011;11218;48.886;9.426;2023-02-22T02:58:32;31.35;;;9.82;;
22103;SDS011;11218;48.886;9.426;2023-02-22T03:01:01;36.00;;;10.40;;
22103;SDS011;11218;48.886;9.426;2023-02-22T03:03:39;25.00;;;9.13;;
22103;SDS011;11218;48.886;9.426;2023-02-22T03:09:20;29.08;;;9.77;;
22103;SDS011;11218;48.886;9.426;2023-02-22T03:12:04;29.17;;;9.68;;
22103;SDS011;11218;48.886;9.426;2023-02-22T03:14:39;25.83;;;8.90;;
22103;SDS011;11218;48.886;9.426;2023-02-22T03:17:17;41.45;;;11.27;;
22103;SDS011;11218;48.886;9.426;2023-02-22T03:19:52;38.05;;;10.10;;
22103;SDS011;11218;48.886;9.426;2023-02-22T03:22:25;34.83;;;10.07;;
22103;SDS011;11218;48.886;9.426;2023-02-22T03:24:59;43.13;;;11.32;;
22103;SDS011;11218;48.886;9.426;2023-02-22T03:27:33;24.63;;;8.02;;
22103;SDS011;11218;48.886;9.426;2023-02-22T03:30:09;23.13;;;8.30;;
22103;SDS011;11218;48.886;9.426;2023-02-22T03:32:43;34.13;;;10.10;;
22103;SDS011;11218;48.886;9.426;2023-02-22T03:35:17;37.72;;;9.38;;
22103;SDS011;11218;48.886;9.426;2023-02-22T03:37:49;37.38;;;9.82;;
22103;SDS011;11218;48.886;9.426;2023-02-22T03:40:22;31.58;;;9.85;;
22103;SDS011;11218;48.886;9.426;2023-02-22T03:42:55;30.70;;;9.15;;
22103;SDS011;11218;48.886;9.426;2023-02-22T03:45:28;34.22;;;9.75;;
22103;SDS011;11218;48.886;9.426;2023-02-22T03:48:00;33.38;;;9.70;;
22103;SDS011;11218;48.886;9.426;2023-02-22T03:50:33;28.67;;;9.15;;
22103;SDS011;11218;48.886;9.426;2023-02-22T03:53:03;29.70;;;9.40;;
22103;SDS011;11218;48.886;9.426;2023-02-22T03:55:32;43.45;;;10.98;;
22103;SDS011;11218;48.886;9.426;2023-02-22T03:58:02;31.77;;;9.95;;
22103;SDS011;11218;48.886;9.426;2023-02-22T04:00:33;38.47;;;10.05;;
22103;SDS011;11218;48.886;9.426;2023-02-22T04:03:02;30.90;;;9.40;;
22103;SDS011;11218;48.886;9.426;2023-02-22T04:05:30;34.40;;;9.75;;
22103;SDS011;11218;48.886;9.426;2023-02-22T04:08:00;31.98;;;9.35;;
22103;SDS011;11218;48.886;9.426;2023-02-22T04:10:28;47.88;;;11.50;;
22103;SDS011;11218;48.886;9.426;2023-02-22T04:12:55;32.38;;;9.20;;
22103;SDS011;11218;48.886;9.426;2023-02-22T04:15:24;31.45;;;9.00;;
22103;SDS011;11218;48.886;9.426;2023-02-22T04:17:52;27.13;;;8.82;;
22103;SDS011;11218;48.886;9.426;2023-02-22T04:20:20;35.42;;;9.93;;
22103;SDS011;11218;48.886;9.426;2023-02-22T04:22:51;25.60;;;8.88;;
22103;SDS011;11218;48.886;9.426;2023-02-22T04:25:21;32.67;;;9.48;;
22103;SDS011;11218;48.886;9.426;2023-02-22T04:27:50;32.53;;;9.90;;
22103;SDS011;11218;48.886;9.426;2023-02-22T04:30:18;34.38;;;9.73;;
22103;SDS011;11218;48.886;9.426;2023-02-22T04:32:46;33.15;;;10.68;;
22103;SDS011;11218;48.886;9.426;2023-02-22T04:35:14;21.83;;;8.90;;
22103;SDS011;11218;48.886;9.426;2023-02-22T04:37:42;34.45;;;10.57;;
22103;SDS011;11218;48.886;9.426;2023-02-22T04:40:11;29.30;;;9.63;;
22103;SDS011;11218;48.886;9.426;2023-02-22T04:42:40;31.45;;;9.90;;
22103;SDS011;11218;48.886;9.426;2023-02-22T04:45:09;33.00;;;10.57;;
22103;SDS011;11218;48.886;9.426;2023-02-22T04:47:37;32.00;;;9.98;;
22103;SDS011;11218;48.886;9.426;2023-02-22T04:50:06;39.10;;;11.48;;
22103;SDS011;11218;48.886;9.426;2023-02-22T04:52:36;34.60;;;10.38;;
22103;SDS011;11218;48.886;9.426;2023-02-22T04:55:04;37.47;;;11.10;;
22103;SDS011;11218;48.886;9.426;2023-02-22T04:57:32;28.92;;;9.88;;
22103;SDS011;11218;48.886;9.426;2023-02-22T05:00:02;36.85;;;10.43;;
22103;SDS011;11218;48.886;9.426;2023-02-22T05:02:31;25.83;;;9.40;;
22103;SDS011;11218;48.886;9.426;2023-02-22T05:04:59;36.28;;;10.63;;
22103;SDS011;11218;48.886;9.426;2023-02-22T05:07:27;28.88;;;9.55;;
22103;SDS011;11218;48.886;9.426;2023-02-22T05:09:55;48.20;;;12.40;;
22103;SDS011;11218;48.886;9.426;2023-02-22T05:12:23;27.17;;;8.88;;
22103;SDS011;11218;48.886;9.426;2023-02-22T05:14:53;30.80;;;9.10;;
22103;SDS011;11218;48.886;9.426;2023-02-22T05:17:23;35.42;;;10.35;;
22103;SDS011;11218;48.886;9.426;2023-02-22T05:19:51;28.05;;;9.43;;
22103;SDS011;11218;48.886;9.426;2023-02-22T05:22:18;24.60;;;8.80;;
22103;SDS011;11218;48.886;9.426;2023-02-22T05:24:46;29.67;;;9.38;;
22103;SDS011;11218;48.886;9.426;2023-02-22T05:27:14;22.95;;;8.88;;
22103;SDS011;11218;48.886;9.426;2023-02-22T05:29:42;26.15;;;8.38;;
22103;SDS011;11218;48.886;9.426;2023-02-22T05:32:11;24.27;;;9.18;;
22103;SDS011;11218;48.886;9.426;2023-02-22T05:34:40;25.73;;;9.65;;
22103;SDS011;11218;48.886;9.426;2023-02-22T05:37:08;28.95;;;10.07;;
22103;SDS011;11218;48.886;9.426;2023-02-22T05:39:36;29.48;;;11.23;;
22103;SDS011;11218;48.886;9.426;2023-02-22T05:42:04;33.92;;;11.60;;
22103;SDS011;11218;48.886;9.426;2023-02-22T05:44:32;33.80;;;10.80;;
22103;SDS011;11218;48.886;9.426;2023-02-22T05:47:00;38.00;;;11.85;;
22103;SDS011;11218;48.886;9.426;2023-02-22T05:49:28;37.35;;;11.30;;
22103;SDS011;11218;48.886;9.426;2023-02-22T05:51:57;31.13;;;10.52;;
22103;SDS011;11218;48.886;9.426;2023-02-22T05:54:25;29.75;;;9.55;;
22103;SDS011;11218;48.886;9.426;2023-02-22T05:56:53;37.53;;;10.50;;
22103;SDS011;11218;48.886;9.426;2023-02-22T05:59:21;55.63;;;13.20;;
22103;SDS011;11218;48.886;9.426;2023-02-22T06:01:49;29.73;;;9.40;;
22103;SDS011;11218;48.886;9.426;2023-02-22T06:04:17;34.78;;;9.60;;
22103;SDS011;11218;48.886;9.426;2023-02-22T06:06:45;19.88;;;7.85;;
22103;SDS011;11218;48.886;9.426;2023-02-22T06:09:15;36.33;;;10.27;;
22103;SDS011;11218;48.886;9.426;2023-02-22T06:11:43;23.40;;;8.57;;
22103;SDS011;11218;48.886;9.426;2023-02-22T06:14:11;29.35;;;9.43;;
22103;SDS011;11218;48.886;9.426;2023-02-22T06:16:39;35.40;;;9.45;;
22103;SDS011;11218;48.886;9.426;2023-02-22T06:19:07;23.90;;;9.20;;
22103;SDS011;11218;48.886;9.426;2023-02-22T06:21:35;24.50;;;8.70;;
22103;SDS011;11218;48.886;9.426;2023-02-22T06:24:03;38.97;;;10.02;;
22103;SDS011;11218;48.886;9.426;2023-02-22T06:26:32;29.92;;;9.35;;
22103;SDS011;11218;48.886;9.426;2023-02-22T06:29:01;35.67;;;10.55;;
22103;SDS011;11218;48.886;9.426;2023-02-22T06:31:31;37.65;;;10.65;;
22103;SDS011;11218;48.886;9.426;2023-02-22T06:33:59;43.40;;;11.52;;
22103;SDS011;11218;48.886;9.426;2023-02-22T06:36:28;40.95;;;10.50;;
22103;SDS011;11218;48.886;9.426;2023-02-22T06:38:56;35.60;;;10.25;;
22103;SDS011;11218;48.886;9.426;2023-02-22T06:41:25;46.08;;;11.18;;
22103;SDS011;11218;48.886;9.426;2023-02-22T06:43:54;36.28;;;10.00;;
22103;SDS011;11218;48.886;9.426;2023-02-22T06:46:22;32.47;;;9.68;;
22103;SDS011;11218;48.886;9.426;2023-02-22T06:48:50;44.53;;;11.75;;
22103;SDS011;11218;48.886;9.426;2023-02-22T06:51:18;42.78;;;11.60;;
22103;SDS011;11218;48.886;9.426;2023-02-22T06:53:47;37.83;;;11.75;;
22103;SDS011;11218;48.886;9.426;2023-02-22T06:56:15;39.63;;;11.50;;
22103;SDS011;11218;48.886;9.426;2023-02-22T06:58:43;39.20;;;11.88;;
22103;SDS011;11218;48.886;9.426;2023-02-22T07:01:13;45.50;;;11.63;;
22103;SDS011;11218;48.886;9.426;2023-02-22T07:03:42;45.72;;;11.70;;
22103;SDS011;11218;48.886;9.426;2023-02-22T07:06:10;38.55;;;11.60;;
22103;SDS011;11218;48.886;9.426;2023-02-22T07:08:38;38.70;;;12.23;;
22103;SDS011;11218;48.886;9.426;2023-02-22T07:11:06;44.47;;;13.57;;
22103;SDS011;11218;48.886;9.426;2023-02-22T07:13:35;42.60;;;12.90;;
22103;SDS011;11218;48.886;9.426;2023-02-22T07:16:03;40.75;;;12.13;;
22103;SDS011;11218;48.886;9.426;2023-02-22T07:18:33;39.53;;;12.68;;
22103;SDS011;11218;48.886;9.426;2023-02-22T07:21:01;42.70;;;12.82;;
22103;SDS011;11218;48.886;9.426;2023-02-22T07:23:29;35.95;;;11.63;;
22103;SDS011;11218;48.886;9.426;2023-02-22T07:25:58;56.67;;;14.00;;
22103;SDS011;11218;48.886;9.426;2023-02-22T07:28:26;43.63;;;12.18;;
22103;SDS011;11218;48.886;9.426;2023-02-22T07:30:54;39.78;;;12.52;;
22103;SDS011;11218;48.886;9.426;2023-02-22T07:33:22;50.83;;;12.88;;
22103;SDS011;11218;48.886;9.426;2023-02-22T07:35:52;61.55;;;14.88;;
22103;SDS011;11218;48.886;9.426;2023-02-22T07:38:20;32.45;;;11.23;;
22103;SDS011;11218;48.886;9.426;2023-02-22T07:40:48;31.17;;;11.27;;
22103;SDS011;11218;48.886;9.426;2023-02-22T07:43:17;35.60;;;11.38;;
22103;SDS011;11218;48.886;9.426;2023-02-22T07:45:47;38.30;;;12.00;;
22103;SDS011;11218;48.886;9.426;2023-02-22T07:48:18;32.03;;;11.48;;
22103;SDS011;11218;48.886;9.426;2023-02-22T07:50:47;40.92;;;12.93;;
22103;SDS011;11218;48.886;9.426;2023-02-22T07:53:17;36.22;;;11.65;;
22103;SDS011;11218;48.886;9.426;2023-02-22T07:55:47;45.08;;;12.20;;
22103;SDS011;11218;48.886;9.426;2023-02-22T07:58:17;40.78;;;11.85;;
22103;SDS011;11218;48.886;9.426;2023-02-22T08:00:46;36.67;;;11.88;;
22103;SDS011;11218;48.886;9.426;2023-02-22T08:03:14;40.08;;;11.63;;
22103;SDS011;11218;48.886;9.426;2023-02-22T08:05:46;49.25;;;12.60;;
22103;SDS011;11218;48.886;9.426;2023-02-22T08:08:16;40.63;;;12.25;;
22103;SDS011;11218;48.886;9.426;2023-02-22T08:10:45;40.00;;;11.70;;
22103;SDS011;11218;48.886;9.426;2023-02-22T08:13:14;38.83;;;11.93;;
22103;SDS011;11218;48.886;9.426;2023-02-22T08:15:44;33.70;;;10.88;;
22103;SDS011;11218;48.886;9.426;2023-02-22T08:18:13;44.53;;;11.77;;
22103;SDS011;11218;48.886;9.426;2023-02-22T08:20:43;47.55;;;13.10;;
22103;SDS011;11218;48.886;9.426;2023-02-22T08:23:13;51.42;;;14.82;;
22103;SDS011;11218;48.886;9.426;2023-02-22T08:25:44;52.60;;;14.73;;
22103;SDS011;11218;48.886;9.426;2023-02-22T08:28:13;45.60;;;14.50;;
22103;SDS011;11218;48.886;9.426;2023-02-22T08:30:42;68.10;;;18.30;;
22103;SDS011;11218;48.886;9.426;2023-02-22T08:33:11;55.05;;;16.80;;
22103;SDS011;11218;48.886;9.426;2023-02-22T08:35:42;59.58;;;16.73;;
22103;SDS011;11218;48.886;9.426;2023-02-22T08:38:14;57.75;;;15.10;;
22103;SDS011;11218;48.886;9.426;2023-02-22T08:40:47;48.17;;;13.90;;
22103;SDS011;11218;48.886;9.426;2023-02-22T08:43:15;36.22;;;11.70;;
22103;SDS011;11218;48.886;9.426;2023-02-22T08:45:45;34.47;;;11.70;;
22103;SDS011;11218;48.886;9.426;2023-02-22T08:48:48;39.30;;;12.52;;
22103;SDS011;11218;48.886;9.426;2023-02-22T08:51:16;49.70;;;14.20;;
22103;SDS011;11218;48.886;9.426;2023-02-22T08:53:44;38.08;;;12.27;;
22103;SDS011;11218;48.886;9.426;2023-02-22T08:56:14;38.45;;;13.38;;
22103;SDS011;11218;48.886;9.426;2023-02-22T08:58:42;35.95;;;12.30;;
22103;SDS011;11218;48.886;9.426;2023-02-22T09:01:10;39.83;;;13.13;;
22103;SDS011;11218;48.886;9.426;2023-02-22T09:03:47;39.10;;;13.73;;
22103;SDS011;11218;48.886;9.426;2023-02-22T09:06:15;43.65;;;12.25;;
22103;SDS011;11218;48.886;9.426;2023-02-22T09:08:43;49.22;;;14.27;;
22103;SDS011;11218;48.886;9.426;2023-02-22T09:11:11;47.33;;;13.27;;
22103;SDS011;11218;48.886;9.426;2023-02-22T09:13:41;31.73;;;11.75;;
22103;SDS011;11218;48.886;9.426;2023-02-22T09:16:10;41.83;;;12.77;;
22103;SDS011;11218;48.886;9.426;2023-02-22T09:18:38;40.15;;;12.05;;
22103;SDS011;11218;48.886;9.426;2023-02-22T09:21:10;29.02;;;10.27;;
22103;SDS011;11218;48.886;9.426;2023-02-22T09:23:38;32.25;;;11.35;;
22103;SDS011;11218;48.886;9.426;2023-02-22T09:26:06;35.28;;;11.88;;
22103;SDS011;11218;48.886;9.426;2023-02-22T09:28:37;35.03;;;12.43;;
22103;SDS011;11218;48.886;9.426;2023-02-22T09:31:05;34.25;;;11.95;;
22103;SDS011;11218;48.886;9.426;2023-02-22T09:33:34;37.78;;;12.32;;
22103;SDS011;11218;48.886;9.426;2023-02-22T09:36:02;39.30;;;12.88;;
22103;SDS011;11218;48.886;9.426;2023-02-22T09:38:32;29.05;;;11.38;;
22103;SDS011;11218;48.886;9.426;2023-02-22T09:41:09;40.67;;;12.43;;
22103;SDS011;11218;48.886;9.426;2023-02-22T09:43:43;36.47;;;11.57;;
22103;SDS011;11218;48.886;9.426;2023-02-22T09:46:22;30.92;;;11.00;;
22103;SDS011;11218;48.886;9.426;2023-02-22T09:48:57;37.72;;;11.27;;
22103;SDS011;11218;48.886;9.426;2023-02-22T09:51:30;30.58;;;10.55;;
22103;SDS011;11218;48.886;9.426;2023-02-22T09:54:04;34.10;;;10.95;;
22103;SDS011;11218;48.886;9.426;2023-02-22T09:56:43;38.22;;;11.65;;
22103;SDS011;11218;48.886;9.426;2023-02-22T09:59:16;36.85;;;10.60;;
22103;SDS011;11218;48.886;9.426;2023-02-22T10:01:52;45.55;;;12.60;;
22103;SDS011;11218;48.886;9.426;2023-02-22T10:04:26;39.00;;;12.07;;
22103;SDS011;11218;48.886;9.426;2023-02-22T10:07:10;37.17;;;11.52;;
22103;SDS011;11218;48.886;9.426;2023-02-22T10:09:44;35.70;;;10.23;;
22103;SDS011;11218;48.886;9.426;2023-02-22T10:12:14;37.03;;;10.50;;
22103;SDS011;11218;48.886;9.426;2023-02-22T10:15:06;34.35;;;11.60;;
22103;SDS011;11218;48.886;9.426;2023-02-22T10:17:54;43.85;;;13.63;;
22103;SDS011;11218;48.886;9.426;2023-02-22T10:20:35;41.05;;;12.30;;
22103;SDS011;11218;48.886;9.426;2023-02-22T10:23:13;36.80;;;11.77;;
22103;SDS011;11218;48.886;9.426;2023-02-22T10:25:49;38.80;;;11.45;;
22103;SDS011;11218;48.886;9.426;2023-02-22T10:28:22;37.85;;;12.05;;
22103;SDS011;11218;48.886;9.426;2023-02-22T10:30:59;46.95;;;13.10;;
22103;SDS011;11218;48.886;9.426;2023-02-22T10:33:31;37.50;;;11.82;;
22103;SDS011;11218;48.886;9.426;2023-02-22T10:36:03;47.20;;;12.65;;
22103;SDS011;11218;48.886;9.426;2023-02-22T10:38:33;29.10;;;10.18;;
22103;SDS011;11218;48.886;9.426;2023-02-22T10:41:02;49.40;;;13.32;;
22103;SDS011;11218;48.886;9.426;2023-02-22T10:43:45;40.40;;;11.98;;
22103;SDS011;11218;48.886;9.426;2023-02-22T10:46:15;45.33;;;13.50;;
22103;SDS011;11218;48.886;9.426;2023-02-22T10:48:49;45.17;;;13.73;;
22103;SDS011;11218;48.886;9.426;2023-02-22T10:51:19;62.13;;;14.68;;
22103;SDS011;11218;48.886;9.426;2023-02-22T10:53:52;45.30;;;13.63;;
22103;SDS011;11218;48.886;9.426;2023-02-22T10:56:25;47.55;;;14.40;;
22103;SDS011;11218;48.886;9.426;2023-02-22T10:58:55;42.95;;;13.52;;
22103;SDS011;11218;48.886;9.426;2023-02-22T11:01:27;42.25;;;12.75;;
22103;SDS011;11218;48.886;9.426;2023-02-22T11:04:04;41.65;;;11.43;;
22103;SDS011;11218;48.886;9.426;2023-02-22T11:06:38;42.88;;;11.38;;
22103;SDS011;11218;48.886;9.426;2023-02-22T11:09:09;43.92;;;13.32;;
22103;SDS011;11218;48.886;9.426;2023-02-22T11:11:40;32.20;;;10.85;;
22103;SDS011;11218;48.886;9.426;2023-02-22T11:14:12;41.40;;;12.20;;
22103;SDS011;11218;48.886;9.426;2023-02-22T11:17:00;40.97;;;11.10;;
22103;SDS011;11218;48.886;9.426;2023-02-22T11:19:33;48.85;;;12.65;;
22103;SDS011;11218;48.886;9.426;2023-02-22T11:22:09;37.03;;;11.30;;
22103;SDS011;11218;48.886;9.426;2023-02-22T11:24:43;47.50;;;12.25;;
22103;SDS011;11218;48.886;9.426;2023-02-22T11:27:23;37.30;;;10.55;;
22103;SDS011;11218;48.886;9.426;2023-02-22T11:30:04;42.30;;;11.93;;
22103;SDS011;11218;48.886;9.426;2023-02-22T11:32:49;44.95;;;12.35;;
22103;SDS011;11218;48.886;9.426;2023-02-22T11:35:35;41.08;;;11.98;;
22103;SDS011;11218;48.886;9.426;2023-02-22T11:38:10;48.78;;;12.88;;
22103;SDS011;11218;48.886;9.426;2023-02-22T11:40:43;48.35;;;13.13;;
22103;SDS011;11218;48.886;9.426;2023-02-22T11:43:13;46.95;;;12.57;;
22103;SDS011;11218;48.886;9.426;2023-02-22T11:45:56;42.80;;;11.88;;
22103;SDS011;11218;48.886;9.426;2023-02-22T11:48:35;37.85;;;11.23;;
22103;SDS011;11218;48.886;9.426;2023-02-22T11:51:11;41.85;;;11.70;;
22103;SDS011;11218;48.886;9.426;2023-02-22T11:54:01;40.25;;;11.32;;
22103;SDS011;11218;48.886;9.426;2023-02-22T11:56:51;44.55;;;10.93;;
22103;SDS011;11218;48.886;9.426;2023-02-22T11:59:34;48.38;;;11.60;;
22103;SDS011;11218;48.886;9.426;2023-02-22T12:02:21;35.83;;;10.88;;
22103;SDS011;11218;48.886;9.426;2023-02-22T12:05:27;51.60;;;13.52;;
22103;SDS011;11218;48.886;9.426;2023-02-22T12:08:09;42.63;;;12.90;;
22103;SDS011;11218;48.886;9.426;2023-02-22T12:10:50;34.38;;;11.55;;
22103;SDS011;11218;48.886;9.426;2023-02-22T12:13:35;41.85;;;12.27;;
22103;SDS011;11218;48.886;9.426;2023-02-22T12:16:14;32.67;;;11.57;;
22103;SDS011;11218;48.886;9.426;2023-02-22T12:18:53;43.40;;;12.93;;
22103;SDS011;11218;48.886;9.426;2023-02-22T12:21:35;41.15;;;12.13;;
22103;SDS011;11218;48.886;9.426;2023-02-22T12:24:08;50.47;;;13.40;;
22103;SDS011;11218;48.886;9.426;2023-02-22T12:26:42;28.85;;;10.40;;
22103;SDS011;11218;48.886;9.426;2023-02-22T12:29:16;38.97;;;11.93;;
22103;SDS011;11218;48.886;9.426;2023-02-22T12:31:53;48.42;;;12.75;;
22103;SDS011;11218;48.886;9.426;2023-02-22T12:34:28;40.30;;;12.10;;
22103;SDS011;11218;48.886;9.426;2023-02-22T12:37:06;42.60;;;11.68;;
22103;SDS011;11218;48.886;9.426;2023-02-22T12:39:45;39.67;;;12.23;;
22103;SDS011;11218;48.886;9.426;2023-02-22T12:42:21;34.15;;;10.40;;
22103;SDS011;11218;48.886;9.426;2023-02-22T12:44:58;41.72;;;11.52;;
22103;SDS011;11218;48.886;9.426;2023-02-22T12:47:35;41.97;;;12.55;;
22103;SDS011;11218;48.886;9.426;2023-02-22T12:50:11;42.20;;;12.27;;
22103;SDS011;11218;48.886;9.426;2023-02-22T12:52:49;34.33;;;11.35;;
22103;SDS011;11218;48.886;9.426;2023-02-22T12:55:23;47.35;;;12.85;;
22103;SDS011;11218;48.886;9.426;2023-02-22T12:57:54;38.95;;;12.68;;
22103;SDS011;11218;48.886;9.426;2023-02-22T13:00:30;37.22;;;11.93;;
22103;SDS011;11218;48.886;9.426;2023-02-22T13:03:21;30.90;;;10.98;;
22103;SDS011;11218;48.886;9.426;2023-02-22T13:05:57;44.00;;;12.63;;
22103;SDS011;11218;48.886;9.426;2023-02-22T13:08:54;37.70;;;12.25;;
22103;SDS011;11218;48.886;9.426;2023-02-22T13:11:32;46.63;;;13.07;;
22103;SDS011;11218;48.886;9.426;2023-02-22T13:14:15;41.72;;;12.38;;
22103;SDS011;11218;48.886;9.426;2023-02-22T13:16:58;38.72;;;12.13;;
22103;SDS011;11218;48.886;9.426;2023-02-22T13:19:34;40.53;;;12.27;;
22103;SDS011;11218;48.886;9.426;2023-02-22T13:22:12;38.97;;;11.35;;
22103;SDS011;11218;48.886;9.426;2023-02-22T13:24:51;31.98;;;11.00;;
22103;SDS011;11218;48.886;9.426;2023-02-22T13:27:29;29.60;;;10.70;;
22103;SDS011;11218;48.886;9.426;2023-02-22T13:30:04;30.23;;;10.55;;
22103;SDS011;11218;48.886;9.426;2023-02-22T13:32:48;31.27;;;10.73;;
22103;SDS011;11218;48.886;9.426;2023-02-22T13:35:34;40.17;;;12.32;;
22103;SDS011;11218;48.886;9.426;2023-02-22T13:38:24;45.13;;;12.45;;
22103;SDS011;11218;48.886;9.426;2023-02-22T13:44:35;38.60;;;13.02;;
22103;SDS011;11218;48.886;9.426;2023-02-22T13:47:44;43.08;;;14.20;;
22103;SDS011;11218;48.886;9.426;2023-02-22T13:50:26;37.63;;;13.48;;
22103;SDS011;11218;48.886;9.426;2023-02-22T13:53:09;46.08;;;14.48;;
22103;SDS011;11218;48.886;9.426;2023-02-22T13:55:40;47.42;;;14.90;;
22103;SDS011;11218;48.886;9.426;2023-02-22T13:58:18;45.40;;;14.43;;
22103;SDS011;11218;48.886;9.426;2023-02-22T14:00:48;43.90;;;14.00;;
22103;SDS011;11218;48.886;9.426;2023-02-22T14:06:08;45.72;;;13.75;;
22103;SDS011;11218;48.886;9.426;2023-02-22T14:08:38;37.78;;;13.25;;
22103;SDS011;11218;48.886;9.426;2023-02-22T14:14:15;37.15;;;12.98;;
22103;SDS011;11218;48.886;9.426;2023-02-22T14:17:14;44.92;;;13.05;;
22103;SDS011;11218;48.886;9.426;2023-02-22T14:22:57;43.42;;;14.50;;
22103;SDS011;11218;48.886;9.426;2023-02-22T14:25:52;38.08;;;12.75;;
22103;SDS011;11218;48.886;9.426;2023-02-22T14:28:36;39.75;;;14.30;;
22103;SDS011;11218;48.886;9.426;2023-02-22T14:31:10;46.97;;;14.35;;
22103;SDS011;11218;48.886;9.426;2023-02-22T14:34:06;41.42;;;13.95;;
22103;SDS011;11218;48.886;9.426;2023-02-22T14:36:47;45.15;;;14.30;;
22103;SDS011;11218;48.886;9.426;2023-02-22T14:39:24;42.72;;;13.98;;
22103;SDS011;11218;48.886;9.426;2023-02-22T14:41:58;40.85;;;13.88;;
22103;SDS011;11218;48.886;9.426;2023-02-22T14:44:33;39.90;;;13.13;;
22103;SDS011;11218;48.886;9.426;2023-02-22T14:47:06;47.97;;;14.77;;
22103;SDS011;11218;48.886;9.426;2023-02-22T14:49:41;53.15;;;15.38;;
22103;SDS011;11218;48.886;9.426;2023-02-22T14:52:17;44.05;;;13.75;;
22103;SDS011;11218;48.886;9.426;2023-02-22T14:54:58;47.15;;;13.85;;
22103;SDS011;11218;48.886;9.426;2023-02-22T14:57:48;40.03;;;13.00;;
22103;SDS011;11218;48.886;9.426;2023-02-22T15:00:25;39.22;;;12.57;;
22103;SDS011;11218;48.886;9.426;2023-02-22T15:02:59;43.85;;;14.20;;
22103;SDS011;11218;48.886;9.426;2023-02-22T15:05:28;40.85;;;12.38;;
22103;SDS011;11218;48.886;9.426;2023-02-22T15:08:05;34.58;;;12.40;;
22103;SDS011;11218;48.886;9.426;2023-02-22T15:10:39;33.95;;;12.68;;
22103;SDS011;11218;48.886;9.426;2023-02-22T15:13:13;39.60;;;13.35;;
22103;SDS011;11218;48.886;9.426;2023-02-22T15:15:44;38.10;;;13.63;;